Pagrindinis puslapis
METAR-TAF:

METAR-TAF

Oro uostai :

Santa Marija, Azorai, Portugalija

platuma: 36-58N, ilguma: 025-10W, Aukštis: 100 m

Dabartinis oras

Ataskaita buvo paskelbta 35 minutes, ne 18:30 UTC
Vėjas 8 kt iš Rytų
Temperatūra 18°C
Drėgmė 77%
Slėgis 1019 hPa
Matomumas 10 km arba daugiau
Mažai debesys ne aukštis 1200 ft
Išsisklaidę debesys ne aukštis 2000 ft
Liūtis kaimynystėje,

METAR: LPAZ 221830Z 08008KT 9999 VCSH FEW012 SCT020 18/14 Q1019

Laikas: 19:05 (19:05 UTC)

Prognozė

Ataskaita buvo paskelbta 2 valandos ir 5 minutes, ne 17:00 UTC
Prognozė galioja nuo 22 metu 18 UTC su 23 metu 24 UTC
Vėjas 12 kt iš Rytų
Matomumas 10 km arba daugiau
Mažai debesys ne aukštis 2000 ft
Išsisklaidę debesys ne aukštis 3500 ft
Laikinai
nuo 22 metu 18 UTC su 23 metu 24 UTC
Išsisklaidę debesys ne aukštis 1500 ft
Su prošvaistėmis ne aukštis 3000 ft
Tapsmas
nuo 23 metu 10 UTC su 23 metu 12 UTC
Vėjas 12 kt iš Šiaurės Rytų

TAF: LPAZ 221700Z 2218/2324 09012KT 9999 FEW020 SCT035 TEMPO 2218/2324 SCT015 BKN030 BECMG 2310/2312 05012KT

Orai ataskaitas ir orų prognozės (METAR, TAF).

turimą stotys yra geltonos ir raudonos taškus žemėlapyje.

Perkelti pele per norėdami pamatyti stoties vardą.

Tada spustelėkite, norėdami matyti oro stebėjimo ir prognozės.

Norėdami pakeisti žemėlapį: spustelėkite ant žalios mygtukų su juodo kryžiaus žemyn,; žalią mygtuką su brūkšneliu, jei norite nutolinti; arba žalių rodyklių gretimoms žemėlapius.


METAR-TAF: